sensor_id;sensor_type;location;lat;lon;timestamp;P1;durP1;ratioP1;P2;durP2;ratioP2
20056;SDS011;10189;49.546;7.906;2023-04-25T00:01:45;20.13;;;14.52;;
20056;SDS011;10189;49.546;7.906;2023-04-25T00:04:12;20.15;;;15.07;;
20056;SDS011;10189;49.546;7.906;2023-04-25T00:06:38;19.77;;;15.18;;
20056;SDS011;10189;49.546;7.906;2023-04-25T00:09:04;20.02;;;15.68;;
20056;SDS011;10189;49.546;7.906;2023-04-25T00:11:35;20.13;;;15.55;;
20056;SDS011;10189;49.546;7.906;2023-04-25T00:14:02;19.98;;;15.60;;
20056;SDS011;10189;49.546;7.906;2023-04-25T00:16:29;21.67;;;16.05;;
20056;SDS011;10189;49.546;7.906;2023-04-25T00:18:58;22.77;;;16.55;;
20056;SDS011;10189;49.546;7.906;2023-04-25T00:21:25;21.63;;;16.17;;
20056;SDS011;10189;49.546;7.906;2023-04-25T00:23:52;20.90;;;16.73;;
20056;SDS011;10189;49.546;7.906;2023-04-25T00:26:18;20.45;;;16.65;;
20056;SDS011;10189;49.546;7.906;2023-04-25T00:28:46;22.23;;;16.52;;
20056;SDS011;10189;49.546;7.906;2023-04-25T00:31:15;21.23;;;16.27;;
20056;SDS011;10189;49.546;7.906;2023-04-25T00:33:41;22.88;;;17.38;;
20056;SDS011;10189;49.546;7.906;2023-04-25T00:36:07;22.70;;;16.90;;
20056;SDS011;10189;49.546;7.906;2023-04-25T00:38:33;20.92;;;16.65;;
20056;SDS011;10189;49.546;7.906;2023-04-25T00:40:59;19.52;;;15.95;;
20056;SDS011;10189;49.546;7.906;2023-04-25T00:43:26;24.00;;;17.45;;
20056;SDS011;10189;49.546;7.906;2023-04-25T00:45:53;21.92;;;16.00;;
20056;SDS011;10189;49.546;7.906;2023-04-25T00:48:21;20.83;;;15.68;;
20056;SDS011;10189;49.546;7.906;2023-04-25T00:50:52;21.10;;;16.52;;
20056;SDS011;10189;49.546;7.906;2023-04-25T00:53:24;21.13;;;16.65;;
20056;SDS011;10189;49.546;7.906;2023-04-25T00:55:53;22.80;;;16.40;;
20056;SDS011;10189;49.546;7.906;2023-04-25T00:58:20;21.50;;;16.50;;
20056;SDS011;10189;49.546;7.906;2023-04-25T01:00:48;20.77;;;16.48;;
20056;SDS011;10189;49.546;7.906;2023-04-25T01:03:17;23.05;;;16.50;;
20056;SDS011;10189;49.546;7.906;2023-04-25T01:05:45;23.70;;;17.55;;
20056;SDS011;10189;49.546;7.906;2023-04-25T01:08:12;20.17;;;16.50;;
20056;SDS011;10189;49.546;7.906;2023-04-25T01:10:39;20.83;;;15.90;;
20056;SDS011;10189;49.546;7.906;2023-04-25T01:13:05;21.42;;;16.33;;
20056;SDS011;10189;49.546;7.906;2023-04-25T01:15:31;19.92;;;15.40;;
20056;SDS011;10189;49.546;7.906;2023-04-25T01:17:58;19.77;;;16.00;;
20056;SDS011;10189;49.546;7.906;2023-04-25T01:20:26;21.67;;;16.67;;
20056;SDS011;10189;49.546;7.906;2023-04-25T01:22:53;20.95;;;16.40;;
20056;SDS011;10189;49.546;7.906;2023-04-25T01:25:21;20.65;;;15.80;;
20056;SDS011;10189;49.546;7.906;2023-04-25T01:27:48;20.00;;;15.90;;
20056;SDS011;10189;49.546;7.906;2023-04-25T01:30:14;22.73;;;17.20;;
20056;SDS011;10189;49.546;7.906;2023-04-25T01:32:41;24.13;;;17.25;;
20056;SDS011;10189;49.546;7.906;2023-04-25T01:35:09;22.02;;;16.42;;
20056;SDS011;10189;49.546;7.906;2023-04-25T01:40:04;23.73;;;17.65;;
20056;SDS011;10189;49.546;7.906;2023-04-25T01:42:31;25.77;;;17.60;;
20056;SDS011;10189;49.546;7.906;2023-04-25T01:44:58;23.27;;;17.35;;
20056;SDS011;10189;49.546;7.906;2023-04-25T01:47:26;22.02;;;17.15;;
20056;SDS011;10189;49.546;7.906;2023-04-25T01:49:53;22.35;;;17.08;;
20056;SDS011;10189;49.546;7.906;2023-04-25T01:52:20;21.02;;;16.40;;
20056;SDS011;10189;49.546;7.906;2023-04-25T01:54:46;22.17;;;17.33;;
20056;SDS011;10189;49.546;7.906;2023-04-25T01:57:14;24.85;;;17.98;;
20056;SDS011;10189;49.546;7.906;2023-04-25T01:59:41;21.20;;;16.25;;
20056;SDS011;10189;49.546;7.906;2023-04-25T02:02:34;22.45;;;17.38;;
20056;SDS011;10189;49.546;7.906;2023-04-25T02:05:00;24.08;;;18.20;;
20056;SDS011;10189;49.546;7.906;2023-04-25T02:07:27;22.42;;;16.58;;
20056;SDS011;10189;49.546;7.906;2023-04-25T02:09:53;23.90;;;17.42;;
20056;SDS011;10189;49.546;7.906;2023-04-25T02:12:21;20.98;;;15.90;;
20056;SDS011;10189;49.546;7.906;2023-04-25T02:15:04;20.08;;;15.65;;
20056;SDS011;10189;49.546;7.906;2023-04-25T02:17:46;19.67;;;15.20;;
20056;SDS011;10189;49.546;7.906;2023-04-25T02:20:12;22.65;;;17.02;;
20056;SDS011;10189;49.546;7.906;2023-04-25T02:22:38;20.80;;;16.25;;
20056;SDS011;10189;49.546;7.906;2023-04-25T02:25:05;19.75;;;15.13;;
20056;SDS011;10189;49.546;7.906;2023-04-25T02:27:34;20.55;;;15.23;;
20056;SDS011;10189;49.546;7.906;2023-04-25T02:30:00;18.65;;;14.98;;
20056;SDS011;10189;49.546;7.906;2023-04-25T02:32:26;20.10;;;14.77;;
20056;SDS011;10189;49.546;7.906;2023-04-25T02:34:52;19.95;;;15.35;;
20056;SDS011;10189;49.546;7.906;2023-04-25T02:37:18;19.20;;;14.75;;
20056;SDS011;10189;49.546;7.906;2023-04-25T02:39:44;22.30;;;16.65;;
20056;SDS011;10189;49.546;7.906;2023-04-25T02:42:11;21.63;;;16.77;;
20056;SDS011;10189;49.546;7.906;2023-04-25T02:44:37;24.70;;;17.85;;
20056;SDS011;10189;49.546;7.906;2023-04-25T02:47:04;23.42;;;17.30;;
20056;SDS011;10189;49.546;7.906;2023-04-25T02:49:30;23.27;;;17.45;;
20056;SDS011;10189;49.546;7.906;2023-04-25T02:51:56;22.90;;;17.25;;
20056;SDS011;10189;49.546;7.906;2023-04-25T02:54:22;23.63;;;17.48;;
20056;SDS011;10189;49.546;7.906;2023-04-25T02:56:48;21.92;;;16.85;;
20056;SDS011;10189;49.546;7.906;2023-04-25T02:59:19;22.65;;;17.10;;
20056;SDS011;10189;49.546;7.906;2023-04-25T03:01:45;22.95;;;17.10;;
20056;SDS011;10189;49.546;7.906;2023-04-25T03:04:11;24.52;;;17.20;;
20056;SDS011;10189;49.546;7.906;2023-04-25T03:06:37;21.77;;;15.85;;
20056;SDS011;10189;49.546;7.906;2023-04-25T03:09:02;22.15;;;17.08;;
20056;SDS011;10189;49.546;7.906;2023-04-25T03:11:29;24.23;;;17.40;;
20056;SDS011;10189;49.546;7.906;2023-04-25T03:13:55;24.23;;;18.20;;
20056;SDS011;10189;49.546;7.906;2023-04-25T03:16:21;29.35;;;22.25;;
20056;SDS011;10189;49.546;7.906;2023-04-25T03:18:49;24.67;;;18.30;;
20056;SDS011;10189;49.546;7.906;2023-04-25T03:21:16;25.83;;;18.67;;
20056;SDS011;10189;49.546;7.906;2023-04-25T03:23:42;25.17;;;17.92;;
20056;SDS011;10189;49.546;7.906;2023-04-25T03:26:08;25.20;;;17.88;;
20056;SDS011;10189;49.546;7.906;2023-04-25T03:28:34;27.25;;;19.35;;
20056;SDS011;10189;49.546;7.906;2023-04-25T03:30:59;26.05;;;18.60;;
20056;SDS011;10189;49.546;7.906;2023-04-25T03:33:25;28.75;;;19.95;;
20056;SDS011;10189;49.546;7.906;2023-04-25T03:35:51;25.27;;;18.75;;
20056;SDS011;10189;49.546;7.906;2023-04-25T03:38:18;29.48;;;20.50;;
20056;SDS011;10189;49.546;7.906;2023-04-25T03:40:44;28.00;;;19.65;;
20056;SDS011;10189;49.546;7.906;2023-04-25T03:43:24;27.00;;;18.33;;
20056;SDS011;10189;49.546;7.906;2023-04-25T03:45:56;27.42;;;19.08;;
20056;SDS011;10189;49.546;7.906;2023-04-25T03:48:22;28.63;;;19.58;;
20056;SDS011;10189;49.546;7.906;2023-04-25T03:50:50;28.17;;;20.15;;
20056;SDS011;10189;49.546;7.906;2023-04-25T03:53:16;29.15;;;19.27;;
20056;SDS011;10189;49.546;7.906;2023-04-25T03:56:02;29.38;;;20.00;;
20056;SDS011;10189;49.546;7.906;2023-04-25T03:58:31;29.60;;;20.60;;
20056;SDS011;10189;49.546;7.906;2023-04-25T04:00:57;31.55;;;21.25;;
20056;SDS011;10189;49.546;7.906;2023-04-25T04:03:23;32.15;;;22.70;;
20056;SDS011;10189;49.546;7.906;2023-04-25T04:05:50;34.72;;;22.73;;
20056;SDS011;10189;49.546;7.906;2023-04-25T04:08:16;31.95;;;22.58;;
20056;SDS011;10189;49.546;7.906;2023-04-25T04:10:42;32.10;;;22.88;;
20056;SDS011;10189;49.546;7.906;2023-04-25T04:13:08;35.65;;;23.17;;
20056;SDS011;10189;49.546;7.906;2023-04-25T04:15:34;32.90;;;22.90;;
20056;SDS011;10189;49.546;7.906;2023-04-25T04:18:00;31.75;;;21.95;;
20056;SDS011;10189;49.546;7.906;2023-04-25T04:20:28;32.60;;;21.77;;
20056;SDS011;10189;49.546;7.906;2023-04-25T04:22:58;31.53;;;21.57;;
20056;SDS011;10189;49.546;7.906;2023-04-25T04:25:24;32.70;;;22.70;;
20056;SDS011;10189;49.546;7.906;2023-04-25T04:28:23;28.92;;;21.50;;
20056;SDS011;10189;49.546;7.906;2023-04-25T04:31:00;34.50;;;22.50;;
20056;SDS011;10189;49.546;7.906;2023-04-25T04:33:28;32.35;;;21.98;;
20056;SDS011;10189;49.546;7.906;2023-04-25T04:35:58;32.13;;;21.60;;
20056;SDS011;10189;49.546;7.906;2023-04-25T04:38:24;27.75;;;20.50;;
20056;SDS011;10189;49.546;7.906;2023-04-25T04:40:53;29.70;;;21.60;;
20056;SDS011;10189;49.546;7.906;2023-04-25T04:43:37;29.67;;;20.73;;
20056;SDS011;10189;49.546;7.906;2023-04-25T04:46:20;28.27;;;20.60;;
20056;SDS011;10189;49.546;7.906;2023-04-25T04:49:19;28.80;;;20.50;;
20056;SDS011;10189;49.546;7.906;2023-04-25T04:52:04;26.30;;;19.48;;
20056;SDS011;10189;49.546;7.906;2023-04-25T04:54:50;26.63;;;19.55;;
20056;SDS011;10189;49.546;7.906;2023-04-25T04:57:36;26.25;;;18.13;;
20056;SDS011;10189;49.546;7.906;2023-04-25T05:00:29;27.98;;;19.67;;
20056;SDS011;10189;49.546;7.906;2023-04-25T05:03:13;27.08;;;18.75;;
20056;SDS011;10189;49.546;7.906;2023-04-25T05:05:49;24.45;;;18.40;;
20056;SDS011;10189;49.546;7.906;2023-04-25T05:08:38;28.02;;;20.80;;
20056;SDS011;10189;49.546;7.906;2023-04-25T05:11:23;24.58;;;18.50;;
20056;SDS011;10189;49.546;7.906;2023-04-25T05:14:01;28.27;;;19.63;;
20056;SDS011;10189;49.546;7.906;2023-04-25T05:16:36;29.48;;;20.65;;
20056;SDS011;10189;49.546;7.906;2023-04-25T05:19:20;30.38;;;22.33;;
20056;SDS011;10189;49.546;7.906;2023-04-25T05:22:09;27.63;;;20.60;;
20056;SDS011;10189;49.546;7.906;2023-04-25T05:25:01;28.80;;;20.80;;
20056;SDS011;10189;49.546;7.906;2023-04-25T05:27:57;39.17;;;27.08;;
20056;SDS011;10189;49.546;7.906;2023-04-25T05:30:42;31.95;;;23.45;;
20056;SDS011;10189;49.546;7.906;2023-04-25T05:33:20;28.65;;;20.98;;
20056;SDS011;10189;49.546;7.906;2023-04-25T05:35:46;32.17;;;23.55;;
20056;SDS011;10189;49.546;7.906;2023-04-25T05:38:13;29.48;;;20.23;;
20056;SDS011;10189;49.546;7.906;2023-04-25T05:40:57;24.02;;;17.90;;
20056;SDS011;10189;49.546;7.906;2023-04-25T05:43:46;23.60;;;18.02;;
20056;SDS011;10189;49.546;7.906;2023-04-25T05:46:22;26.05;;;18.45;;
20056;SDS011;10189;49.546;7.906;2023-04-25T05:48:59;26.42;;;18.83;;
20056;SDS011;10189;49.546;7.906;2023-04-25T05:51:48;24.38;;;18.17;;
20056;SDS011;10189;49.546;7.906;2023-04-25T05:54:37;24.27;;;18.67;;
20056;SDS011;10189;49.546;7.906;2023-04-25T05:57:03;24.85;;;18.92;;
20056;SDS011;10189;49.546;7.906;2023-04-25T05:59:30;23.45;;;17.65;;
20056;SDS011;10189;49.546;7.906;2023-04-25T06:01:56;32.35;;;24.95;;
20056;SDS011;10189;49.546;7.906;2023-04-25T06:04:22;23.60;;;18.00;;
20056;SDS011;10189;49.546;7.906;2023-04-25T06:06:49;24.38;;;17.73;;
20056;SDS011;10189;49.546;7.906;2023-04-25T06:09:15;23.00;;;16.83;;
20056;SDS011;10189;49.546;7.906;2023-04-25T06:11:41;22.55;;;17.23;;
20056;SDS011;10189;49.546;7.906;2023-04-25T06:14:07;24.08;;;17.20;;
20056;SDS011;10189;49.546;7.906;2023-04-25T06:16:36;24.10;;;17.50;;
20056;SDS011;10189;49.546;7.906;2023-04-25T06:19:01;74.40;;;59.83;;
20056;SDS011;10189;49.546;7.906;2023-04-25T06:21:27;24.58;;;20.13;;
20056;SDS011;10189;49.546;7.906;2023-04-25T06:23:53;23.58;;;16.27;;
20056;SDS011;10189;49.546;7.906;2023-04-25T06:26:22;19.95;;;15.77;;
20056;SDS011;10189;49.546;7.906;2023-04-25T06:28:48;22.20;;;16.45;;
20056;SDS011;10189;49.546;7.906;2023-04-25T06:31:14;20.63;;;16.20;;
20056;SDS011;10189;49.546;7.906;2023-04-25T06:33:42;22.92;;;16.25;;
20056;SDS011;10189;49.546;7.906;2023-04-25T06:36:08;24.42;;;17.48;;
20056;SDS011;10189;49.546;7.906;2023-04-25T06:38:35;21.83;;;16.30;;
20056;SDS011;10189;49.546;7.906;2023-04-25T06:41:01;20.08;;;15.82;;
20056;SDS011;10189;49.546;7.906;2023-04-25T06:43:33;23.17;;;17.05;;
20056;SDS011;10189;49.546;7.906;2023-04-25T06:46:17;19.52;;;15.02;;
20056;SDS011;10189;49.546;7.906;2023-04-25T06:48:46;21.40;;;16.40;;
20056;SDS011;10189;49.546;7.906;2023-04-25T06:51:11;22.52;;;15.27;;
20056;SDS011;10189;49.546;7.906;2023-04-25T06:53:39;19.10;;;14.70;;
20056;SDS011;10189;49.546;7.906;2023-04-25T06:56:09;18.93;;;14.93;;
20056;SDS011;10189;49.546;7.906;2023-04-25T06:58:44;17.10;;;13.18;;
20056;SDS011;10189;49.546;7.906;2023-04-25T07:01:15;17.30;;;13.18;;
20056;SDS011;10189;49.546;7.906;2023-04-25T07:03:41;15.93;;;13.82;;
20056;SDS011;10189;49.546;7.906;2023-04-25T07:06:13;17.95;;;13.85;;
20056;SDS011;10189;49.546;7.906;2023-04-25T07:08:38;19.63;;;13.93;;
20056;SDS011;10189;49.546;7.906;2023-04-25T07:11:04;21.50;;;14.38;;
20056;SDS011;10189;49.546;7.906;2023-04-25T07:13:30;22.58;;;14.98;;
20056;SDS011;10189;49.546;7.906;2023-04-25T07:15:56;22.42;;;13.95;;
20056;SDS011;10189;49.546;7.906;2023-04-25T07:18:23;20.15;;;14.38;;
20056;SDS011;10189;49.546;7.906;2023-04-25T07:20:49;19.98;;;15.05;;
20056;SDS011;10189;49.546;7.906;2023-04-25T07:23:15;21.73;;;15.32;;
20056;SDS011;10189;49.546;7.906;2023-04-25T07:25:41;23.77;;;15.63;;
20056;SDS011;10189;49.546;7.906;2023-04-25T07:28:07;25.73;;;17.23;;
20056;SDS011;10189;49.546;7.906;2023-04-25T07:30:34;24.23;;;15.95;;
20056;SDS011;10189;49.546;7.906;2023-04-25T07:33:02;25.42;;;16.23;;
20056;SDS011;10189;49.546;7.906;2023-04-25T07:35:28;26.10;;;17.63;;
20056;SDS011;10189;49.546;7.906;2023-04-25T07:37:54;23.05;;;16.90;;
20056;SDS011;10189;49.546;7.906;2023-04-25T07:40:20;23.60;;;15.85;;
20056;SDS011;10189;49.546;7.906;2023-04-25T07:42:54;26.95;;;15.50;;
20056;SDS011;10189;49.546;7.906;2023-04-25T07:45:39;26.88;;;15.85;;
20056;SDS011;10189;49.546;7.906;2023-04-25T07:48:05;21.50;;;14.73;;
20056;SDS011;10189;49.546;7.906;2023-04-25T07:50:34;26.05;;;14.65;;
20056;SDS011;10189;49.546;7.906;2023-04-25T07:53:01;26.15;;;15.48;;
20056;SDS011;10189;49.546;7.906;2023-04-25T07:55:32;24.25;;;14.30;;
20056;SDS011;10189;49.546;7.906;2023-04-25T07:58:07;24.17;;;15.48;;
20056;SDS011;10189;49.546;7.906;2023-04-25T08:00:36;21.40;;;14.27;;
20056;SDS011;10189;49.546;7.906;2023-04-25T08:03:23;25.25;;;15.82;;
20056;SDS011;10189;49.546;7.906;2023-04-25T08:05:49;19.83;;;14.60;;
20056;SDS011;10189;49.546;7.906;2023-04-25T08:08:16;26.00;;;15.52;;
20056;SDS011;10189;49.546;7.906;2023-04-25T08:10:42;24.60;;;15.18;;
20056;SDS011;10189;49.546;7.906;2023-04-25T08:13:08;18.52;;;13.95;;
20056;SDS011;10189;49.546;7.906;2023-04-25T08:15:35;32.00;;;26.88;;
20056;SDS011;10189;49.546;7.906;2023-04-25T08:18:01;27.98;;;23.10;;
20056;SDS011;10189;49.546;7.906;2023-04-25T08:20:28;29.65;;;21.08;;
20056;SDS011;10189;49.546;7.906;2023-04-25T08:22:56;33.78;;;29.13;;
20056;SDS011;10189;49.546;7.906;2023-04-25T08:25:29;37.03;;;29.50;;
20056;SDS011;10189;49.546;7.906;2023-04-25T08:27:56;22.25;;;14.15;;
20056;SDS011;10189;49.546;7.906;2023-04-25T08:30:22;24.67;;;17.33;;
20056;SDS011;10189;49.546;7.906;2023-04-25T08:32:49;28.92;;;16.95;;
20056;SDS011;10189;49.546;7.906;2023-04-25T08:35:28;21.13;;;16.25;;
20056;SDS011;10189;49.546;7.906;2023-04-25T08:37:55;20.55;;;13.00;;
20056;SDS011;10189;49.546;7.906;2023-04-25T08:40:22;25.35;;;19.13;;
20056;SDS011;10189;49.546;7.906;2023-04-25T08:42:57;24.42;;;16.08;;
20056;SDS011;10189;49.546;7.906;2023-04-25T08:45:26;23.45;;;17.55;;
20056;SDS011;10189;49.546;7.906;2023-04-25T08:47:56;25.65;;;16.13;;
20056;SDS011;10189;49.546;7.906;2023-04-25T08:50:22;20.90;;;14.57;;
20056;SDS011;10189;49.546;7.906;2023-04-25T08:52:52;19.23;;;11.80;;
20056;SDS011;10189;49.546;7.906;2023-04-25T08:55:20;20.75;;;12.40;;
20056;SDS011;10189;49.546;7.906;2023-04-25T08:57:52;15.63;;;10.85;;
20056;SDS011;10189;49.546;7.906;2023-04-25T09:00:20;20.73;;;11.00;;
20056;SDS011;10189;49.546;7.906;2023-04-25T09:02:47;17.45;;;10.60;;
20056;SDS011;10189;49.546;7.906;2023-04-25T09:05:14;16.08;;;10.18;;
20056;SDS011;10189;49.546;7.906;2023-04-25T09:07:41;16.02;;;9.63;;
20056;SDS011;10189;49.546;7.906;2023-04-25T09:10:07;14.75;;;9.77;;
20056;SDS011;10189;49.546;7.906;2023-04-25T09:12:36;17.13;;;9.65;;
20056;SDS011;10189;49.546;7.906;2023-04-25T09:15:05;13.07;;;8.05;;
20056;SDS011;10189;49.546;7.906;2023-04-25T09:17:45;11.70;;;7.57;;
20056;SDS011;10189;49.546;7.906;2023-04-25T09:20:21;13.02;;;7.35;;
20056;SDS011;10189;49.546;7.906;2023-04-25T09:22:47;12.68;;;7.70;;
20056;SDS011;10189;49.546;7.906;2023-04-25T09:25:14;16.38;;;7.97;;
20056;SDS011;10189;49.546;7.906;2023-04-25T09:27:53;16.00;;;7.97;;
20056;SDS011;10189;49.546;7.906;2023-04-25T09:30:29;15.95;;;9.30;;
20056;SDS011;10189;49.546;7.906;2023-04-25T09:33:13;16.48;;;7.97;;
20056;SDS011;10189;49.546;7.906;2023-04-25T09:35:45;19.48;;;10.02;;
20056;SDS011;10189;49.546;7.906;2023-04-25T09:38:24;14.85;;;7.30;;
20056;SDS011;10189;49.546;7.906;2023-04-25T09:40:51;14.65;;;7.70;;
20056;SDS011;10189;49.546;7.906;2023-04-25T09:43:34;11.88;;;7.25;;
20056;SDS011;10189;49.546;7.906;2023-04-25T09:46:01;11.57;;;7.80;;
20056;SDS011;10189;49.546;7.906;2023-04-25T09:48:29;12.65;;;6.80;;
20056;SDS011;10189;49.546;7.906;2023-04-25T09:51:11;11.90;;;6.97;;
20056;SDS011;10189;49.546;7.906;2023-04-25T09:53:42;12.98;;;7.68;;
20056;SDS011;10189;49.546;7.906;2023-04-25T09:56:30;12.90;;;7.60;;
20056;SDS011;10189;49.546;7.906;2023-04-25T09:59:05;11.43;;;6.68;;
20056;SDS011;10189;49.546;7.906;2023-04-25T10:01:34;9.70;;;6.13;;
20056;SDS011;10189;49.546;7.906;2023-04-25T10:04:11;12.23;;;6.43;;
20056;SDS011;10189;49.546;7.906;2023-04-25T10:06:55;12.55;;;6.05;;
20056;SDS011;10189;49.546;7.906;2023-04-25T10:09:24;12.43;;;5.78;;
20056;SDS011;10189;49.546;7.906;2023-04-25T10:11:52;10.50;;;6.03;;
20056;SDS011;10189;49.546;7.906;2023-04-25T10:14:19;11.70;;;5.90;;
20056;SDS011;10189;49.546;7.906;2023-04-25T10:16:47;7.47;;;5.00;;
20056;SDS011;10189;49.546;7.906;2023-04-25T10:19:13;10.40;;;5.65;;
20056;SDS011;10189;49.546;7.906;2023-04-25T10:21:48;11.23;;;6.75;;
20056;SDS011;10189;49.546;7.906;2023-04-25T10:24:39;11.75;;;6.90;;
20056;SDS011;10189;49.546;7.906;2023-04-25T10:27:07;8.77;;;5.57;;
20056;SDS011;10189;49.546;7.906;2023-04-25T10:29:33;9.32;;;5.32;;
20056;SDS011;10189;49.546;7.906;2023-04-25T10:32:00;10.52;;;5.78;;
20056;SDS011;10189;49.546;7.906;2023-04-25T10:34:45;8.85;;;6.00;;
20056;SDS011;10189;49.546;7.906;2023-04-25T10:37:14;7.65;;;5.93;;
20056;SDS011;10189;49.546;7.906;2023-04-25T10:39:40;9.02;;;5.55;;
20056;SDS011;10189;49.546;7.906;2023-04-25T10:42:08;11.88;;;6.18;;
20056;SDS011;10189;49.546;7.906;2023-04-25T10:44:34;8.55;;;6.45;;
20056;SDS011;10189;49.546;7.906;2023-04-25T10:47:02;8.07;;;5.85;;
20056;SDS011;10189;49.546;7.906;2023-04-25T10:52:10;9.73;;;6.35;;
20056;SDS011;10189;49.546;7.906;2023-04-25T10:54:55;13.15;;;6.53;;
20056;SDS011;10189;49.546;7.906;2023-04-25T10:57:29;7.97;;;5.70;;
20056;SDS011;10189;49.546;7.906;2023-04-25T10:59:59;6.50;;;5.80;;
20056;SDS011;10189;49.546;7.906;2023-04-25T11:02:44;7.50;;;6.70;;
20056;SDS011;10189;49.546;7.906;2023-04-25T11:05:32;18.27;;;12.80;;
20056;SDS011;10189;49.546;7.906;2023-04-25T11:08:00;10.95;;;9.80;;
20056;SDS011;10189;49.546;7.906;2023-04-25T11:10:31;9.13;;;8.10;;
20056;SDS011;10189;49.546;7.906;2023-04-25T11:13:01;11.45;;;8.45;;
20056;SDS011;10189;49.546;7.906;2023-04-25T11:15:27;46.92;;;41.78;;
20056;SDS011;10189;49.546;7.906;2023-04-25T11:17:54;10.63;;;8.70;;
20056;SDS011;10189;49.546;7.906;2023-04-25T11:20:21;10.25;;;7.78;;
20056;SDS011;10189;49.546;7.906;2023-04-25T11:22:50;6.13;;;4.93;;
20056;SDS011;10189;49.546;7.906;2023-04-25T11:25:17;10.05;;;7.53;;
20056;SDS011;10189;49.546;7.906;2023-04-25T11:30:19;8.85;;;6.75;;
20056;SDS011;10189;49.546;7.906;2023-04-25T11:32:47;7.63;;;6.05;;
20056;SDS011;10189;49.546;7.906;2023-04-25T11:35:13;7.55;;;6.40;;
20056;SDS011;10189;49.546;7.906;2023-04-25T11:37:40;6.25;;;5.22;;
20056;SDS011;10189;49.546;7.906;2023-04-25T11:40:08;7.18;;;5.82;;
20056;SDS011;10189;49.546;7.906;2023-04-25T11:42:39;12.63;;;11.32;;
20056;SDS011;10189;49.546;7.906;2023-04-25T11:45:09;13.43;;;10.73;;
20056;SDS011;10189;49.546;7.906;2023-04-25T11:47:36;11.18;;;8.73;;
20056;SDS011;10189;49.546;7.906;2023-04-25T11:50:03;7.03;;;5.15;;
20056;SDS011;10189;49.546;7.906;2023-04-25T11:52:45;9.48;;;6.78;;
20056;SDS011;10189;49.546;7.906;2023-04-25T11:55:17;8.52;;;5.68;;
20056;SDS011;10189;49.546;7.906;2023-04-25T11:57:46;8.43;;;6.13;;
20056;SDS011;10189;49.546;7.906;2023-04-25T12:00:15;15.15;;;10.40;;
20056;SDS011;10189;49.546;7.906;2023-04-25T12:02:47;15.25;;;12.73;;
20056;SDS011;10189;49.546;7.906;2023-04-25T12:05:17;9.00;;;6.55;;
20056;SDS011;10189;49.546;7.906;2023-04-25T12:07:43;12.10;;;7.30;;
20056;SDS011;10189;49.546;7.906;2023-04-25T12:10:13;11.15;;;7.15;;
20056;SDS011;10189;49.546;7.906;2023-04-25T12:12:41;7.32;;;5.85;;
20056;SDS011;10189;49.546;7.906;2023-04-25T12:15:15;10.88;;;7.07;;
20056;SDS011;10189;49.546;7.906;2023-04-25T12:17:46;7.47;;;6.50;;
20056;SDS011;10189;49.546;7.906;2023-04-25T12:20:16;6.75;;;5.72;;
20056;SDS011;10189;49.546;7.906;2023-04-25T12:22:45;7.43;;;6.05;;
20056;SDS011;10189;49.546;7.906;2023-04-25T12:25:33;7.32;;;5.60;;
20056;SDS011;10189;49.546;7.906;2023-04-25T12:33:25;7.45;;;5.63;;
20056;SDS011;10189;49.546;7.906;2023-04-25T12:35:54;12.43;;;8.63;;
20056;SDS011;10189;49.546;7.906;2023-04-25T12:38:24;7.55;;;6.53;;
20056;SDS011;10189;49.546;7.906;2023-04-25T12:40:55;19.67;;;15.30;;
20056;SDS011;10189;49.546;7.906;2023-04-25T12:43:22;12.95;;;10.82;;
20056;SDS011;10189;49.546;7.906;2023-04-25T12:45:49;15.35;;;10.77;;
20056;SDS011;10189;49.546;7.906;2023-04-25T12:48:20;14.50;;;10.60;;
20056;SDS011;10189;49.546;7.906;2023-04-25T12:50:47;13.88;;;9.70;;
20056;SDS011;10189;49.546;7.906;2023-04-25T12:53:15;13.75;;;9.93;;
20056;SDS011;10189;49.546;7.906;2023-04-25T12:55:46;10.65;;;7.97;;
20056;SDS011;10189;49.546;7.906;2023-04-25T12:58:13;16.10;;;10.40;;
20056;SDS011;10189;49.546;7.906;2023-04-25T13:00:40;11.02;;;7.80;;
20056;SDS011;10189;49.546;7.906;2023-04-25T13:03:07;11.90;;;8.60;;
20056;SDS011;10189;49.546;7.906;2023-04-25T13:05:34;11.13;;;7.47;;
20056;SDS011;10189;49.546;7.906;2023-04-25T13:08:01;13.38;;;9.32;;
20056;SDS011;10189;49.546;7.906;2023-04-25T13:10:26;8.95;;;7.40;;
20056;SDS011;10189;49.546;7.906;2023-04-25T13:12:52;17.33;;;10.50;;
20056;SDS011;10189;49.546;7.906;2023-04-25T13:15:18;11.13;;;8.63;;
20056;SDS011;10189;49.546;7.906;2023-04-25T13:17:45;16.55;;;8.70;;
20056;SDS011;10189;49.546;7.906;2023-04-25T13:20:11;13.93;;;9.30;;
20056;SDS011;10189;49.546;7.906;2023-04-25T13:22:38;11.60;;;7.72;;
20056;SDS011;10189;49.546;7.906;2023-04-25T13:25:05;12.20;;;7.43;;
20056;SDS011;10189;49.546;7.906;2023-04-25T13:27:33;11.88;;;7.18;;
20056;SDS011;10189;49.546;7.906;2023-04-25T13:30:01;12.27;;;7.10;;
20056;SDS011;10189;49.546;7.906;2023-04-25T13:32:37;12.82;;;7.13;;
20056;SDS011;10189;49.546;7.906;2023-04-25T13:35:09;15.60;;;7.38;;
20056;SDS011;10189;49.546;7.906;2023-04-25T13:37:41;9.75;;;7.28;;
20056;SDS011;10189;49.546;7.906;2023-04-25T13:40:08;13.65;;;7.50;;
20056;SDS011;10189;49.546;7.906;2023-04-25T13:42:37;16.55;;;9.88;;
20056;SDS011;10189;49.546;7.906;2023-04-25T13:45:04;10.00;;;6.53;;
20056;SDS011;10189;49.546;7.906;2023-04-25T13:47:31;19.23;;;11.48;;
20056;SDS011;10189;49.546;7.906;2023-04-25T13:49:57;21.20;;;13.57;;
20056;SDS011;10189;49.546;7.906;2023-04-25T13:52:24;11.10;;;6.90;;
20056;SDS011;10189;49.546;7.906;2023-04-25T13:54:50;10.85;;;6.28;;
20056;SDS011;10189;49.546;7.906;2023-04-25T13:57:17;10.18;;;5.78;;
20056;SDS011;10189;49.546;7.906;2023-04-25T13:59:44;7.97;;;5.63;;
20056;SDS011;10189;49.546;7.906;2023-04-25T14:02:11;12.73;;;5.55;;
20056;SDS011;10189;49.546;7.906;2023-04-25T14:04:38;10.38;;;5.82;;
20056;SDS011;10189;49.546;7.906;2023-04-25T14:07:04;7.85;;;5.03;;
20056;SDS011;10189;49.546;7.906;2023-04-25T14:09:30;7.53;;;5.07;;
20056;SDS011;10189;49.546;7.906;2023-04-25T14:11:56;8.35;;;5.50;;
20056;SDS011;10189;49.546;7.906;2023-04-25T14:14:22;9.38;;;5.45;;
20056;SDS011;10189;49.546;7.906;2023-04-25T14:16:49;12.15;;;5.68;;
20056;SDS011;10189;49.546;7.906;2023-04-25T14:19:18;10.90;;;5.60;;
20056;SDS011;10189;49.546;7.906;2023-04-25T14:21:46;9.80;;;4.97;;
20056;SDS011;10189;49.546;7.906;2023-04-25T14:24:12;6.32;;;3.97;;
20056;SDS011;10189;49.546;7.906;2023-04-25T14:26:39;9.25;;;4.30;;
20056;SDS011;10189;49.546;7.906;2023-04-25T14:29:05;11.32;;;4.75;;
20056;SDS011;10189;49.546;7.906;2023-04-25T14:31:33;9.52;;;5.65;;
20056;SDS011;10189;49.546;7.906;2023-04-25T14:34:00;7.10;;;3.65;;
20056;SDS011;10189;49.546;7.906;2023-04-25T14:36:30;7.05;;;4.20;;
20056;SDS011;10189;49.546;7.906;2023-04-25T14:38:57;38.83;;;23.55;;
20056;SDS011;10189;49.546;7.906;2023-04-25T14:41:26;21.42;;;16.55;;
20056;SDS011;10189;49.546;7.906;2023-04-25T14:43:52;10.80;;;6.40;;
20056;SDS011;10189;49.546;7.906;2023-04-25T14:46:18;12.40;;;7.28;;
20056;SDS011;10189;49.546;7.906;2023-04-25T14:48:45;11.60;;;5.72;;
20056;SDS011;10189;49.546;7.906;2023-04-25T14:51:12;9.63;;;5.30;;
20056;SDS011;10189;49.546;7.906;2023-04-25T14:53:38;11.45;;;4.63;;
20056;SDS011;10189;49.546;7.906;2023-04-25T14:56:05;12.48;;;4.80;;
20056;SDS011;10189;49.546;7.906;2023-04-25T14:58:32;7.18;;;4.22;;